sensor_id;sensor_type;location;lat;lon;timestamp;pressure;altitude;pressure_sealevel;temperature;humidity
15932;BME280;8065;49.520;11.284;2023-07-31T00:01:20;97466.22;;;19.29;73.79
15932;BME280;8065;49.520;11.284;2023-07-31T00:03:49;97460.84;;;19.33;74.03
15932;BME280;8065;49.520;11.284;2023-07-31T00:06:17;97453.94;;;19.36;74.33
15932;BME280;8065;49.520;11.284;2023-07-31T00:08:45;97459.00;;;19.44;73.96
15932;BME280;8065;49.520;11.284;2023-07-31T00:11:14;97452.09;;;19.47;73.07
15932;BME280;8065;49.520;11.284;2023-07-31T00:13:44;97450.16;;;19.44;73.28
15932;BME280;8065;49.520;11.284;2023-07-31T00:16:13;97442.41;;;19.35;74.01
15932;BME280;8065;49.520;11.284;2023-07-31T00:18:41;97442.75;;;19.30;74.47
15932;BME280;8065;49.520;11.284;2023-07-31T00:21:09;97436.59;;;19.29;74.72
15932;BME280;8065;49.520;11.284;2023-07-31T00:23:38;97441.97;;;19.29;74.88
15932;BME280;8065;49.520;11.284;2023-07-31T00:26:06;97443.88;;;19.25;74.87
15932;BME280;8065;49.520;11.284;2023-07-31T00:28:34;97441.81;;;19.08;74.80
15932;BME280;8065;49.520;11.284;2023-07-31T00:31:05;97439.91;;;19.05;74.67
15932;BME280;8065;49.520;11.284;2023-07-31T00:33:34;97439.13;;;19.05;74.74
15932;BME280;8065;49.520;11.284;2023-07-31T00:36:03;97437.22;;;19.05;74.95
15932;BME280;8065;49.520;11.284;2023-07-31T00:38:31;97437.22;;;19.09;75.31
15932;BME280;8065;49.520;11.284;2023-07-31T00:41:00;97433.75;;;19.05;75.41
15932;BME280;8065;49.520;11.284;2023-07-31T00:43:28;97428.34;;;19.08;74.87
15932;BME280;8065;49.520;11.284;2023-07-31T00:45:56;97429.13;;;19.09;75.25
15932;BME280;8065;49.520;11.284;2023-07-31T00:48:28;97441.13;;;19.18;74.86
15932;BME280;8065;49.520;11.284;2023-07-31T00:50:56;97432.28;;;19.18;74.94
15932;BME280;8065;49.520;11.284;2023-07-31T00:53:27;97431.56;;;19.28;73.88
15932;BME280;8065;49.520;11.284;2023-07-31T00:55:56;97431.59;;;19.31;74.05
15932;BME280;8065;49.520;11.284;2023-07-31T00:58:24;97437.00;;;19.35;74.02
15932;BME280;8065;49.520;11.284;2023-07-31T01:00:52;97429.34;;;19.41;73.70
15932;BME280;8065;49.520;11.284;2023-07-31T01:03:21;97432.78;;;19.38;73.20
15932;BME280;8065;49.520;11.284;2023-07-31T01:05:57;97432.00;;;19.33;73.38
15932;BME280;8065;49.520;11.284;2023-07-31T01:08:34;97436.63;;;19.37;72.95
15932;BME280;8065;49.520;11.284;2023-07-31T01:11:09;97436.28;;;19.42;73.43
15932;BME280;8065;49.520;11.284;2023-07-31T01:13:40;97435.53;;;19.45;72.95
15932;BME280;8065;49.520;11.284;2023-07-31T01:16:08;97432.44;;;19.43;72.72
15932;BME280;8065;49.520;11.284;2023-07-31T01:18:37;97428.94;;;19.39;73.65
15932;BME280;8065;49.520;11.284;2023-07-31T01:21:18;97423.94;;;19.41;73.12
15932;BME280;8065;49.520;11.284;2023-07-31T01:26:56;97421.22;;;19.33;73.93
15932;BME280;8065;49.520;11.284;2023-07-31T01:29:32;97414.63;;;19.27;74.40
15932;BME280;8065;49.520;11.284;2023-07-31T01:32:04;97405.00;;;19.26;73.96
15932;BME280;8065;49.520;11.284;2023-07-31T01:34:34;97414.59;;;19.20;74.68
15932;BME280;8065;49.520;11.284;2023-07-31T01:37:04;97412.34;;;19.29;74.65
15932;BME280;8065;49.520;11.284;2023-07-31T01:39:32;97415.41;;;19.28;75.59
15932;BME280;8065;49.520;11.284;2023-07-31T01:42:04;97416.59;;;19.34;74.49
15932;BME280;8065;49.520;11.284;2023-07-31T01:44:33;97414.72;;;19.42;74.11
15932;BME280;8065;49.520;11.284;2023-07-31T01:47:01;97411.66;;;19.47;73.38
15932;BME280;8065;49.520;11.284;2023-07-31T01:49:29;97415.56;;;19.53;73.19
15932;BME280;8065;49.520;11.284;2023-07-31T01:51:57;97410.19;;;19.53;72.30
15932;BME280;8065;49.520;11.284;2023-07-31T01:54:26;97397.13;;;19.62;72.00
15932;BME280;8065;49.520;11.284;2023-07-31T01:56:54;97400.59;;;19.59;72.13
15932;BME280;8065;49.520;11.284;2023-07-31T01:59:25;97394.78;;;19.57;71.88
15932;BME280;8065;49.520;11.284;2023-07-31T02:01:54;97396.72;;;19.60;72.01
15932;BME280;8065;49.520;11.284;2023-07-31T02:04:22;97395.97;;;19.63;72.13
15932;BME280;8065;49.520;11.284;2023-07-31T02:06:52;97401.00;;;19.68;71.93
15932;BME280;8065;49.520;11.284;2023-07-31T02:09:21;97392.91;;;19.64;72.05
15932;BME280;8065;49.520;11.284;2023-07-31T02:11:49;97382.50;;;19.67;72.22
15932;BME280;8065;49.520;11.284;2023-07-31T02:14:17;97382.91;;;19.65;72.65
15932;BME280;8065;49.520;11.284;2023-07-31T02:16:48;97384.06;;;19.68;72.33
15932;BME280;8065;49.520;11.284;2023-07-31T02:19:16;97381.75;;;19.66;72.62
15932;BME280;8065;49.520;11.284;2023-07-31T02:21:45;97380.97;;;19.69;72.80
15932;BME280;8065;49.520;11.284;2023-07-31T02:24:13;97384.03;;;19.64;72.70
15932;BME280;8065;49.520;11.284;2023-07-31T02:26:41;97371.28;;;19.54;73.41
15932;BME280;8065;49.520;11.284;2023-07-31T02:29:10;97375.59;;;19.69;73.36
15932;BME280;8065;49.520;11.284;2023-07-31T02:31:38;97371.31;;;19.61;74.11
15932;BME280;8065;49.520;11.284;2023-07-31T02:34:09;97373.16;;;19.50;73.96
15932;BME280;8065;49.520;11.284;2023-07-31T02:36:37;97366.28;;;19.52;74.25
15932;BME280;8065;49.520;11.284;2023-07-31T02:39:05;97365.09;;;19.50;73.11
15932;BME280;8065;49.520;11.284;2023-07-31T02:41:34;97370.16;;;19.62;72.30
15932;BME280;8065;49.520;11.284;2023-07-31T02:44:02;97362.84;;;19.59;72.24
15932;BME280;8065;49.520;11.284;2023-07-31T02:46:30;97368.63;;;19.61;71.72
15932;BME280;8065;49.520;11.284;2023-07-31T02:48:59;97366.31;;;19.59;71.84
15932;BME280;8065;49.520;11.284;2023-07-31T02:51:29;97372.47;;;19.56;71.81
15932;BME280;8065;49.520;11.284;2023-07-31T02:53:58;97362.44;;;19.53;72.11
15932;BME280;8065;49.520;11.284;2023-07-31T02:56:26;97366.28;;;19.56;72.09
15932;BME280;8065;49.520;11.284;2023-07-31T02:58:54;97365.53;;;19.55;72.24
15932;BME280;8065;49.520;11.284;2023-07-31T03:01:22;97371.69;;;19.56;71.82
15932;BME280;8065;49.520;11.284;2023-07-31T03:03:51;97372.44;;;19.53;71.95
15932;BME280;8065;49.520;11.284;2023-07-31T03:06:19;97370.94;;;19.59;71.63
15932;BME280;8065;49.520;11.284;2023-07-31T03:08:50;97370.94;;;19.59;71.37
15932;BME280;8065;49.520;11.284;2023-07-31T03:11:18;97372.47;;;19.60;71.56
15932;BME280;8065;49.520;11.284;2023-07-31T03:13:47;97367.63;;;19.21;72.53
15932;BME280;8065;49.520;11.284;2023-07-31T03:16:15;97366.19;;;19.42;72.26
15932;BME280;8065;49.520;11.284;2023-07-31T03:18:43;97365.06;;;19.43;72.31
15932;BME280;8065;49.520;11.284;2023-07-31T03:21:12;97357.78;;;19.50;71.69
15932;BME280;8065;49.520;11.284;2023-07-31T03:23:40;97360.13;;;19.55;71.97
15932;BME280;8065;49.520;11.284;2023-07-31T03:26:11;97360.16;;;19.59;71.53
15932;BME280;8065;49.520;11.284;2023-07-31T03:28:39;97363.94;;;19.51;72.14
15932;BME280;8065;49.520;11.284;2023-07-31T03:31:08;97354.72;;;19.52;72.09
15932;BME280;8065;49.520;11.284;2023-07-31T03:33:36;97367.84;;;19.57;72.03
15932;BME280;8065;49.520;11.284;2023-07-31T03:36:05;97358.59;;;19.58;72.07
15932;BME280;8065;49.520;11.284;2023-07-31T03:38:33;97359.78;;;19.64;71.61
15932;BME280;8065;49.520;11.284;2023-07-31T03:41:02;97360.91;;;19.56;72.05
15932;BME280;8065;49.520;11.284;2023-07-31T03:43:34;97354.72;;;19.52;71.58
15932;BME280;8065;49.520;11.284;2023-07-31T03:46:02;97353.97;;;19.55;71.73
15932;BME280;8065;49.520;11.284;2023-07-31T03:48:30;97365.53;;;19.59;71.58
15932;BME280;8065;49.520;11.284;2023-07-31T03:50:59;97363.59;;;19.56;71.39
15932;BME280;8065;49.520;11.284;2023-07-31T03:53:27;97360.50;;;19.54;71.60
15932;BME280;8065;49.520;11.284;2023-07-31T03:55:55;97352.81;;;19.56;71.19
15932;BME280;8065;49.520;11.284;2023-07-31T03:58:23;97352.06;;;19.59;71.31
15932;BME280;8065;49.520;11.284;2023-07-31T04:00:54;97357.03;;;19.53;71.76
15932;BME280;8065;49.520;11.284;2023-07-31T04:03:22;97358.22;;;19.59;71.42
15932;BME280;8065;49.520;11.284;2023-07-31T04:05:51;97362.47;;;19.60;71.12
15932;BME280;8065;49.520;11.284;2023-07-31T04:08:19;97369.00;;;19.56;71.97
15932;BME280;8065;49.520;11.284;2023-07-31T04:10:47;97359.69;;;19.46;71.66
15932;BME280;8065;49.520;11.284;2023-07-31T04:13:16;97362.38;;;19.50;71.52
15932;BME280;8065;49.520;11.284;2023-07-31T04:15:48;97371.69;;;19.56;71.50
15932;BME280;8065;49.520;11.284;2023-07-31T04:18:20;97355.50;;;19.56;71.50
15932;BME280;8065;49.520;11.284;2023-07-31T04:20:48;97353.16;;;19.51;71.94
15932;BME280;8065;49.520;11.284;2023-07-31T04:23:16;97351.66;;;19.57;71.73
15932;BME280;8065;49.520;11.284;2023-07-31T04:25:44;97341.25;;;19.52;71.86
15932;BME280;8065;49.520;11.284;2023-07-31T04:28:13;97345.88;;;19.55;71.51
15932;BME280;8065;49.520;11.284;2023-07-31T04:30:41;97349.38;;;19.59;71.53
15932;BME280;8065;49.520;11.284;2023-07-31T04:33:09;97347.84;;;19.61;71.21
15932;BME280;8065;49.520;11.284;2023-07-31T04:35:40;97354.75;;;19.59;71.93
15932;BME280;8065;49.520;11.284;2023-07-31T04:38:08;97357.44;;;19.55;72.09
15932;BME280;8065;49.520;11.284;2023-07-31T04:40:37;97354.00;;;19.62;71.82
15932;BME280;8065;49.520;11.284;2023-07-31T04:43:05;97352.47;;;19.64;71.31
15932;BME280;8065;49.520;11.284;2023-07-31T04:45:33;97352.47;;;19.68;71.17
15932;BME280;8065;49.520;11.284;2023-07-31T04:48:02;97344.03;;;19.73;71.41
15932;BME280;8065;49.520;11.284;2023-07-31T04:50:30;97347.09;;;19.72;71.81
15932;BME280;8065;49.520;11.284;2023-07-31T04:53:01;97345.16;;;19.65;71.42
15932;BME280;8065;49.520;11.284;2023-07-31T04:55:29;97337.06;;;19.69;71.65
15932;BME280;8065;49.520;11.284;2023-07-31T04:57:58;97336.69;;;19.70;71.64
15932;BME280;8065;49.520;11.284;2023-07-31T05:00:27;97341.69;;;19.72;71.78
15932;BME280;8065;49.520;11.284;2023-07-31T05:02:55;97336.31;;;19.72;71.39
15932;BME280;8065;49.520;11.284;2023-07-31T05:05:23;97337.88;;;19.76;71.63
15932;BME280;8065;49.520;11.284;2023-07-31T05:07:52;97333.25;;;19.80;71.40
15932;BME280;8065;49.520;11.284;2023-07-31T05:10:23;97335.56;;;19.82;71.49
15932;BME280;8065;49.520;11.284;2023-07-31T05:12:51;97328.63;;;19.84;71.37
15932;BME280;8065;49.520;11.284;2023-07-31T05:15:20;97321.34;;;19.88;71.40
15932;BME280;8065;49.520;11.284;2023-07-31T05:17:48;97323.25;;;19.84;71.27
15932;BME280;8065;49.520;11.284;2023-07-31T05:20:16;97331.72;;;19.93;71.13
15932;BME280;8065;49.520;11.284;2023-07-31T05:22:45;97334.81;;;19.95;70.80
15932;BME280;8065;49.520;11.284;2023-07-31T05:25:13;97335.59;;;19.92;70.87
15932;BME280;8065;49.520;11.284;2023-07-31T05:27:44;97337.09;;;19.93;71.01
15932;BME280;8065;49.520;11.284;2023-07-31T05:30:12;97337.50;;;19.95;70.90
15932;BME280;8065;49.520;11.284;2023-07-31T05:32:40;97331.72;;;19.93;70.59
15932;BME280;8065;49.520;11.284;2023-07-31T05:35:09;97327.88;;;20.02;70.91
15932;BME280;8065;49.520;11.284;2023-07-31T05:37:37;97334.06;;;20.09;70.33
15932;BME280;8065;49.520;11.284;2023-07-31T05:40:07;97327.88;;;20.09;70.47
15932;BME280;8065;49.520;11.284;2023-07-31T05:42:35;97330.59;;;20.12;70.44
15932;BME280;8065;49.520;11.284;2023-07-31T05:45:07;97342.53;;;20.15;70.65
15932;BME280;8065;49.520;11.284;2023-07-31T05:47:35;97337.53;;;20.17;71.00
15932;BME280;8065;49.520;11.284;2023-07-31T05:50:04;97346.03;;;20.22;70.40
15932;BME280;8065;49.520;11.284;2023-07-31T05:52:33;97349.13;;;20.28;71.03
15932;BME280;8065;49.520;11.284;2023-07-31T05:55:01;97347.94;;;20.22;70.56
15932;BME280;8065;49.520;11.284;2023-07-31T05:57:30;97347.94;;;20.22;70.95
15932;BME280;8065;49.520;11.284;2023-07-31T05:59:58;97336.41;;;20.28;70.90
15932;BME280;8065;49.520;11.284;2023-07-31T06:02:29;97339.47;;;20.34;70.66
15932;BME280;8065;49.520;11.284;2023-07-31T06:05:02;97332.94;;;20.32;70.08
15932;BME280;8065;49.520;11.284;2023-07-31T06:07:31;97327.16;;;20.40;70.53
15932;BME280;8065;49.520;11.284;2023-07-31T06:09:59;97326.78;;;20.45;69.97
15932;BME280;8065;49.520;11.284;2023-07-31T06:12:30;97320.63;;;20.45;70.46
15932;BME280;8065;49.520;11.284;2023-07-31T06:14:59;97324.84;;;20.49;70.25
15932;BME280;8065;49.520;11.284;2023-07-31T06:17:29;97327.16;;;20.58;69.53
15932;BME280;8065;49.520;11.284;2023-07-31T06:19:58;97317.53;;;20.57;70.06
15932;BME280;8065;49.520;11.284;2023-07-31T06:22:26;97317.91;;;20.63;69.48
15932;BME280;8065;49.520;11.284;2023-07-31T06:24:55;97323.69;;;20.65;69.59
15932;BME280;8065;49.520;11.284;2023-07-31T06:27:23;97331.41;;;20.63;69.41
15932;BME280;8065;49.520;11.284;2023-07-31T06:29:51;97329.47;;;20.74;68.84
15932;BME280;8065;49.520;11.284;2023-07-31T06:32:19;97334.09;;;20.70;69.26
15932;BME280;8065;49.520;11.284;2023-07-31T06:34:50;97339.91;;;20.65;69.14
15932;BME280;8065;49.520;11.284;2023-07-31T06:37:19;97337.19;;;20.72;69.88
15932;BME280;8065;49.520;11.284;2023-07-31T06:39:47;97334.06;;;20.84;69.28
15932;BME280;8065;49.520;11.284;2023-07-31T06:42:15;97336.38;;;20.89;69.53
15932;BME280;8065;49.520;11.284;2023-07-31T06:44:44;97332.13;;;20.95;69.11
15932;BME280;8065;49.520;11.284;2023-07-31T06:47:12;97330.97;;;20.92;68.77
15932;BME280;8065;49.520;11.284;2023-07-31T06:49:40;97328.66;;;20.91;69.13
15932;BME280;8065;49.520;11.284;2023-07-31T06:52:11;97322.47;;;20.90;68.56
15932;BME280;8065;49.520;11.284;2023-07-31T06:54:39;97324.78;;;20.99;68.90
15932;BME280;8065;49.520;11.284;2023-07-31T06:57:08;97321.66;;;21.04;68.84
15932;BME280;8065;49.520;11.284;2023-07-31T06:59:36;97319.34;;;21.06;69.01
15932;BME280;8065;49.520;11.284;2023-07-31T07:02:05;97320.88;;;21.07;68.47
15932;BME280;8065;49.520;11.284;2023-07-31T07:04:33;97311.59;;;21.22;68.17
15932;BME280;8065;49.520;11.284;2023-07-31T07:07:03;97312.00;;;21.24;68.16
15932;BME280;8065;49.520;11.284;2023-07-31T07:09:34;97316.22;;;21.33;68.18
15932;BME280;8065;49.520;11.284;2023-07-31T07:12:02;97319.25;;;21.42;68.07
15932;BME280;8065;49.520;11.284;2023-07-31T07:14:30;97322.72;;;21.46;67.58
15932;BME280;8065;49.520;11.284;2023-07-31T07:16:59;97325.41;;;21.49;67.79
15932;BME280;8065;49.520;11.284;2023-07-31T07:19:27;97322.69;;;21.53;67.18
15932;BME280;8065;49.520;11.284;2023-07-31T07:21:55;97326.91;;;21.61;67.87
15932;BME280;8065;49.520;11.284;2023-07-31T07:24:25;97328.38;;;21.69;67.25
15932;BME280;8065;49.520;11.284;2023-07-31T07:26:56;97327.56;;;21.79;67.19
15932;BME280;8065;49.520;11.284;2023-07-31T07:29:24;97321.34;;;21.82;67.07
15932;BME280;8065;49.520;11.284;2023-07-31T07:31:52;97318.19;;;21.95;67.48
15932;BME280;8065;49.520;11.284;2023-07-31T07:34:22;97317.03;;;21.96;66.66
15932;BME280;8065;49.520;11.284;2023-07-31T07:36:50;97315.50;;;21.95;66.09
15932;BME280;8065;49.520;11.284;2023-07-31T07:39:18;97322.03;;;22.04;66.70
15932;BME280;8065;49.520;11.284;2023-07-31T07:41:47;97318.09;;;22.16;66.41
15932;BME280;8065;49.520;11.284;2023-07-31T07:44:18;97325.78;;;22.21;65.79
15932;BME280;8065;49.520;11.284;2023-07-31T07:46:46;97333.47;;;22.26;66.34
15932;BME280;8065;49.520;11.284;2023-07-31T07:49:14;97331.94;;;22.25;65.83
15932;BME280;8065;49.520;11.284;2023-07-31T07:51:43;97335.84;;;22.20;65.13
15932;BME280;8065;49.520;11.284;2023-07-31T07:54:11;97334.28;;;22.23;65.85
15932;BME280;8065;49.520;11.284;2023-07-31T07:56:39;97336.56;;;22.28;65.27
15932;BME280;8065;49.520;11.284;2023-07-31T07:59:07;97321.06;;;22.32;65.69
15932;BME280;8065;49.520;11.284;2023-07-31T08:01:38;97328.16;;;22.12;65.83
15932;BME280;8065;49.520;11.284;2023-07-31T08:04:06;97320.25;;;22.35;65.18
15932;BME280;8065;49.520;11.284;2023-07-31T08:06:35;97321.38;;;22.41;65.79
15932;BME280;8065;49.520;11.284;2023-07-31T08:09:03;97315.16;;;22.44;65.23
15932;BME280;8065;49.520;11.284;2023-07-31T08:11:31;97314.00;;;22.45;64.99
15932;BME280;8065;49.520;11.284;2023-07-31T08:14:00;97318.50;;;22.59;65.61
15932;BME280;8065;49.520;11.284;2023-07-31T08:16:28;97306.09;;;22.62;64.25
15932;BME280;8065;49.520;11.284;2023-07-31T08:18:59;97302.91;;;22.70;64.78
15932;BME280;8065;49.520;11.284;2023-07-31T08:21:27;97305.19;;;22.79;64.35
15932;BME280;8065;49.520;11.284;2023-07-31T08:23:56;97307.41;;;22.87;64.13
15932;BME280;8065;49.520;11.284;2023-07-31T08:26:24;97311.97;;;22.98;64.02
15932;BME280;8065;49.520;11.284;2023-07-31T08:28:52;97308.00;;;23.06;63.76
15932;BME280;8065;49.520;11.284;2023-07-31T08:31:20;97309.78;;;23.19;63.93
15932;BME280;8065;49.520;11.284;2023-07-31T08:33:49;97306.22;;;23.26;63.49
15932;BME280;8065;49.520;11.284;2023-07-31T08:36:20;97297.81;;;23.17;63.09
15932;BME280;8065;49.520;11.284;2023-07-31T08:38:48;97293.66;;;23.39;63.51
15932;BME280;8065;49.520;11.284;2023-07-31T08:41:16;97281.13;;;23.49;63.83
15932;BME280;8065;49.520;11.284;2023-07-31T08:43:45;97282.59;;;23.57;63.04
15932;BME280;8065;49.520;11.284;2023-07-31T08:46:14;97271.56;;;23.71;62.22
15932;BME280;8065;49.520;11.284;2023-07-31T08:48:43;97273.94;;;23.66;61.67
15932;BME280;8065;49.520;11.284;2023-07-31T08:51:13;97274.38;;;23.91;62.72
15932;BME280;8065;49.520;11.284;2023-07-31T08:53:44;97269.13;;;24.04;61.67
15932;BME280;8065;49.520;11.284;2023-07-31T08:56:13;97262.16;;;24.03;59.48
15932;BME280;8065;49.520;11.284;2023-07-31T08:58:44;97259.28;;;24.13;59.61
15932;BME280;8065;49.520;11.284;2023-07-31T09:01:13;97268.38;;;24.27;59.88
15932;BME280;8065;49.520;11.284;2023-07-31T09:03:44;97265.38;;;24.21;60.12
15932;BME280;8065;49.520;11.284;2023-07-31T09:06:13;97261.84;;;24.24;59.87
15932;BME280;8065;49.520;11.284;2023-07-31T09:08:46;97270.97;;;24.57;59.39
15932;BME280;8065;49.520;11.284;2023-07-31T09:11:14;97262.28;;;24.66;57.45
15932;BME280;8065;49.520;11.284;2023-07-31T09:13:43;97263.56;;;24.81;58.68
15932;BME280;8065;49.520;11.284;2023-07-31T09:16:11;97259.03;;;24.74;58.77
15932;BME280;8065;49.520;11.284;2023-07-31T09:19:03;97256.09;;;24.65;57.44
15932;BME280;8065;49.520;11.284;2023-07-31T09:21:32;97249.31;;;24.54;58.18
15932;BME280;8065;49.520;11.284;2023-07-31T09:24:03;97243.84;;;24.77;57.97
15932;BME280;8065;49.520;11.284;2023-07-31T09:26:32;97268.38;;;24.27;58.70
15932;BME280;8065;49.520;11.284;2023-07-31T09:29:04;97247.78;;;24.52;58.63
15932;BME280;8065;49.520;11.284;2023-07-31T09:31:38;97241.81;;;24.81;57.83
15932;BME280;8065;49.520;11.284;2023-07-31T09:34:07;97231.75;;;25.01;58.58
15932;BME280;8065;49.520;11.284;2023-07-31T09:36:40;97236.66;;;25.26;57.05
15932;BME280;8065;49.520;11.284;2023-07-31T09:39:13;97231.47;;;25.32;56.34
15932;BME280;8065;49.520;11.284;2023-07-31T09:41:43;97245.72;;;25.20;56.56
15932;BME280;8065;49.520;11.284;2023-07-31T09:44:11;97233.91;;;25.46;56.04
15932;BME280;8065;49.520;11.284;2023-07-31T09:46:40;97226.34;;;25.54;56.15
15932;BME280;8065;49.520;11.284;2023-07-31T09:49:08;97226.81;;;25.68;55.79
15932;BME280;8065;49.520;11.284;2023-07-31T09:51:38;97228.34;;;25.69;56.38
15932;BME280;8065;49.520;11.284;2023-07-31T09:54:14;97227.00;;;25.77;56.21
15932;BME280;8065;49.520;11.284;2023-07-31T09:56:45;97226.47;;;25.66;55.64
15932;BME280;8065;49.520;11.284;2023-07-31T09:59:15;97218.50;;;25.92;55.28
15932;BME280;8065;49.520;11.284;2023-07-31T10:01:45;97215.59;;;25.83;54.40
15932;BME280;8065;49.520;11.284;2023-07-31T10:04:14;97205.41;;;25.87;54.50
15932;BME280;8065;49.520;11.284;2023-07-31T10:06:46;97204.94;;;26.04;56.14
15932;BME280;8065;49.520;11.284;2023-07-31T10:09:21;97202.50;;;25.94;54.62
15932;BME280;8065;49.520;11.284;2023-07-31T10:11:55;97209.47;;;25.78;55.24
15932;BME280;8065;49.520;11.284;2023-07-31T10:14:24;97216.53;;;25.76;55.11
15932;BME280;8065;49.520;11.284;2023-07-31T10:16:54;97207.44;;;25.66;55.74
15932;BME280;8065;49.520;11.284;2023-07-31T10:19:24;97207.25;;;25.73;55.77
15932;BME280;8065;49.520;11.284;2023-07-31T10:21:53;97199.28;;;25.83;55.66
15932;BME280;8065;49.520;11.284;2023-07-31T10:24:25;97200.06;;;25.63;55.00
15932;BME280;8065;49.520;11.284;2023-07-31T10:26:57;97196.53;;;25.66;56.25
15932;BME280;8065;49.520;11.284;2023-07-31T10:29:26;97194.50;;;25.70;56.65
15932;BME280;8065;49.520;11.284;2023-07-31T10:31:56;97194.63;;;25.63;56.34
15932;BME280;8065;49.520;11.284;2023-07-31T10:34:25;97185.66;;;25.83;56.22
15932;BME280;8065;49.520;11.284;2023-07-31T10:37:24;97186.34;;;25.87;55.35
15932;BME280;8065;49.520;11.284;2023-07-31T10:40:00;97186.84;;;25.98;54.50
15932;BME280;8065;49.520;11.284;2023-07-31T10:42:33;97184.97;;;25.95;55.45
15932;BME280;8065;49.520;11.284;2023-07-31T10:45:04;97175.19;;;25.97;55.54
15932;BME280;8065;49.520;11.284;2023-07-31T10:47:37;97182.00;;;25.73;55.59
15932;BME280;8065;49.520;11.284;2023-07-31T10:50:13;97179.34;;;25.69;55.54
15932;BME280;8065;49.520;11.284;2023-07-31T10:52:45;97163.53;;;25.80;55.39
15932;BME280;8065;49.520;11.284;2023-07-31T10:55:25;97162.25;;;25.69;55.79
15932;BME280;8065;49.520;11.284;2023-07-31T10:57:54;97171.41;;;25.59;55.88
15932;BME280;8065;49.520;11.284;2023-07-31T11:00:25;97152.22;;;25.66;56.99
15932;BME280;8065;49.520;11.284;2023-07-31T11:03:01;97157.72;;;25.62;56.82
15932;BME280;8065;49.520;11.284;2023-07-31T11:05:52;97160.38;;;25.66;56.11
15932;BME280;8065;49.520;11.284;2023-07-31T11:08:22;97157.72;;;25.62;55.86
15932;BME280;8065;49.520;11.284;2023-07-31T11:11:07;97161.75;;;25.74;55.15
15932;BME280;8065;49.520;11.284;2023-07-31T11:13:40;97151.97;;;25.76;55.66
15932;BME280;8065;49.520;11.284;2023-07-31T11:16:09;97156.03;;;25.68;55.44
15932;BME280;8065;49.520;11.284;2023-07-31T11:18:39;97153.47;;;25.61;55.54
15932;BME280;8065;49.520;11.284;2023-07-31T11:21:09;97146.59;;;25.73;55.05
15932;BME280;8065;49.520;11.284;2023-07-31T11:23:39;97142.94;;;25.96;55.27
15932;BME280;8065;49.520;11.284;2023-07-31T11:26:10;97135.78;;;25.69;54.70
15932;BME280;8065;49.520;11.284;2023-07-31T11:28:39;97126.59;;;25.96;54.96
15932;BME280;8065;49.520;11.284;2023-07-31T11:31:08;97137.75;;;25.85;53.97
15932;BME280;8065;49.520;11.284;2023-07-31T11:33:37;97131.44;;;25.88;54.62
15932;BME280;8065;49.520;11.284;2023-07-31T11:36:05;97133.91;;;25.83;55.76
15932;BME280;8065;49.520;11.284;2023-07-31T11:38:34;97132.22;;;25.89;55.11
15932;BME280;8065;49.520;11.284;2023-07-31T11:41:03;97137.34;;;25.70;54.90
15932;BME280;8065;49.520;11.284;2023-07-31T11:43:34;97146.41;;;25.64;55.12
15932;BME280;8065;49.520;11.284;2023-07-31T11:46:03;97135.94;;;25.62;55.70
15932;BME280;8065;49.520;11.284;2023-07-31T11:48:33;97146.00;;;25.65;56.06
15932;BME280;8065;49.520;11.284;2023-07-31T11:51:02;97141.88;;;25.57;55.58
15932;BME280;8065;49.520;11.284;2023-07-31T11:53:35;97132.88;;;25.60;55.40
15932;BME280;8065;49.520;11.284;2023-07-31T11:56:06;97129.81;;;25.58;56.21
15932;BME280;8065;49.520;11.284;2023-07-31T11:58:40;97126.25;;;25.61;56.30
15932;BME280;8065;49.520;11.284;2023-07-31T12:01:09;97119.44;;;25.53;55.88
15932;BME280;8065;49.520;11.284;2023-07-31T12:03:37;97127.75;;;25.46;56.01
15932;BME280;8065;49.520;11.284;2023-07-31T12:06:07;97128.34;;;25.37;55.60
15932;BME280;8065;49.520;11.284;2023-07-31T12:08:36;97127.44;;;25.44;55.92
15932;BME280;8065;49.520;11.284;2023-07-31T12:11:05;97126.75;;;25.40;56.55
15932;BME280;8065;49.520;11.284;2023-07-31T12:13:35;97127.25;;;25.35;56.30
15932;BME280;8065;49.520;11.284;2023-07-31T12:16:06;97129.63;;;25.33;55.51
15932;BME280;8065;49.520;11.284;2023-07-31T12:18:36;97124.03;;;25.40;56.73
15932;BME280;8065;49.520;11.284;2023-07-31T12:21:06;97124.72;;;25.44;56.69
15932;BME280;8065;49.520;11.284;2023-07-31T12:23:37;97119.94;;;25.32;56.28
15932;BME280;8065;49.520;11.284;2023-07-31T12:26:36;97111.69;;;25.35;57.23
15932;BME280;8065;49.520;11.284;2023-07-31T12:29:51;97110.59;;;25.49;56.68
15932;BME280;8065;49.520;11.284;2023-07-31T12:32:25;97105.84;;;25.53;57.18
15932;BME280;8065;49.520;11.284;2023-07-31T12:34:59;97106.84;;;25.59;56.85
15932;BME280;8065;49.520;11.284;2023-07-31T12:37:28;97101.31;;;25.46;55.82
15932;BME280;8065;49.520;11.284;2023-07-31T12:39:57;97108.28;;;25.47;56.23
15932;BME280;8065;49.520;11.284;2023-07-31T12:42:31;97086.44;;;25.51;56.21
15932;BME280;8065;49.520;11.284;2023-07-31T12:44:59;97089.84;;;25.55;56.82
15932;BME280;8065;49.520;11.284;2023-07-31T12:47:30;97080.69;;;25.65;55.85
15932;BME280;8065;49.520;11.284;2023-07-31T12:49:58;97079.81;;;25.68;55.88
15932;BME280;8065;49.520;11.284;2023-07-31T12:52:26;97072.50;;;25.82;55.96
15932;BME280;8065;49.520;11.284;2023-07-31T12:54:55;97073.66;;;25.97;55.63
15932;BME280;8065;49.520;11.284;2023-07-31T12:57:23;97083.00;;;25.96;55.41
15932;BME280;8065;49.520;11.284;2023-07-31T12:59:51;97069.25;;;25.87;54.43
15932;BME280;8065;49.520;11.284;2023-07-31T13:02:19;97067.63;;;25.89;54.18
15932;BME280;8065;49.520;11.284;2023-07-31T13:04:50;97063.97;;;25.79;54.16
15932;BME280;8065;49.520;11.284;2023-07-31T13:07:19;97059.41;;;25.76;54.31
15932;BME280;8065;49.520;11.284;2023-07-31T13:09:48;97050.53;;;25.89;54.92
15932;BME280;8065;49.520;11.284;2023-07-31T13:12:16;97046.59;;;25.90;54.96
15932;BME280;8065;49.520;11.284;2023-07-31T13:14:45;97044.13;;;25.95;55.57
15932;BME280;8065;49.520;11.284;2023-07-31T13:17:13;97042.28;;;26.05;55.41